sensor_id;sensor_type;location;lat;lon;timestamp;temperature;humidity
30186;DHT22;31152;49.190;8.122;2023-04-21T00:00:12;6.70;99.90
30186;DHT22;31152;49.190;8.122;2023-04-21T00:02:39;6.60;99.90
30186;DHT22;31152;49.190;8.122;2023-04-21T00:05:07;6.60;99.90
30186;DHT22;31152;49.190;8.122;2023-04-21T00:07:39;6.60;99.90
30186;DHT22;31152;49.190;8.122;2023-04-21T00:10:07;6.60;99.90
30186;DHT22;31152;49.190;8.122;2023-04-21T00:12:34;6.60;99.90
30186;DHT22;31152;49.190;8.122;2023-04-21T00:15:04;6.60;99.90
30186;DHT22;31152;49.190;8.122;2023-04-21T00:17:31;6.60;99.90
30186;DHT22;31152;49.190;8.122;2023-04-21T00:19:58;6.50;99.90
30186;DHT22;31152;49.190;8.122;2023-04-21T00:22:25;6.50;99.90
30186;DHT22;31152;49.190;8.122;2023-04-21T00:24:51;6.50;99.90
30186;DHT22;31152;49.190;8.122;2023-04-21T00:27:20;6.50;99.90
30186;DHT22;31152;49.190;8.122;2023-04-21T00:29:47;6.50;99.90
30186;DHT22;31152;49.190;8.122;2023-04-21T00:32:14;6.50;99.90
30186;DHT22;31152;49.190;8.122;2023-04-21T00:34:41;6.40;99.90
30186;DHT22;31152;49.190;8.122;2023-04-21T00:37:08;6.40;99.90
30186;DHT22;31152;49.190;8.122;2023-04-21T00:39:35;6.40;99.90
30186;DHT22;31152;49.190;8.122;2023-04-21T00:42:04;6.30;99.90
30186;DHT22;31152;49.190;8.122;2023-04-21T00:44:30;6.30;99.90
30186;DHT22;31152;49.190;8.122;2023-04-21T00:47:02;6.30;99.90
30186;DHT22;31152;49.190;8.122;2023-04-21T00:49:29;6.20;99.90
30186;DHT22;31152;49.190;8.122;2023-04-21T00:51:55;6.20;99.90
30186;DHT22;31152;49.190;8.122;2023-04-21T00:54:23;6.20;99.90
30186;DHT22;31152;49.190;8.122;2023-04-21T00:56:54;6.10;99.90
30186;DHT22;31152;49.190;8.122;2023-04-21T00:59:20;6.10;99.90
30186;DHT22;31152;49.190;8.122;2023-04-21T01:01:47;6.10;99.90
30186;DHT22;31152;49.190;8.122;2023-04-21T01:04:14;6.10;99.90
30186;DHT22;31152;49.190;8.122;2023-04-21T01:06:41;6.10;99.90
30186;DHT22;31152;49.190;8.122;2023-04-21T01:09:11;6.00;99.90
30186;DHT22;31152;49.190;8.122;2023-04-21T01:11:39;5.90;99.90
30186;DHT22;31152;49.190;8.122;2023-04-21T01:14:06;5.90;99.90
30186;DHT22;31152;49.190;8.122;2023-04-21T01:16:35;5.90;99.90
30186;DHT22;31152;49.190;8.122;2023-04-21T01:19:02;5.90;99.90
30186;DHT22;31152;49.190;8.122;2023-04-21T01:21:38;5.90;99.90
30186;DHT22;31152;49.190;8.122;2023-04-21T01:24:06;5.80;99.90
30186;DHT22;31152;49.190;8.122;2023-04-21T01:26:33;5.80;99.90
30186;DHT22;31152;49.190;8.122;2023-04-21T01:29:02;5.80;99.90
30186;DHT22;31152;49.190;8.122;2023-04-21T01:31:28;5.80;99.90
30186;DHT22;31152;49.190;8.122;2023-04-21T01:33:55;5.70;99.90
30186;DHT22;31152;49.190;8.122;2023-04-21T01:36:22;5.70;99.90
30186;DHT22;31152;49.190;8.122;2023-04-21T01:38:49;5.70;99.90
30186;DHT22;31152;49.190;8.122;2023-04-21T01:41:17;5.70;99.90
30186;DHT22;31152;49.190;8.122;2023-04-21T01:43:44;5.70;99.90
30186;DHT22;31152;49.190;8.122;2023-04-21T01:46:11;5.70;99.90
30186;DHT22;31152;49.190;8.122;2023-04-21T01:48:38;5.70;99.90
30186;DHT22;31152;49.190;8.122;2023-04-21T01:51:04;5.70;99.90
30186;DHT22;31152;49.190;8.122;2023-04-21T01:53:31;5.70;99.90
30186;DHT22;31152;49.190;8.122;2023-04-21T01:55:58;5.70;99.90
30186;DHT22;31152;49.190;8.122;2023-04-21T01:58:25;5.70;99.90
30186;DHT22;31152;49.190;8.122;2023-04-21T02:00:51;5.70;99.90
30186;DHT22;31152;49.190;8.122;2023-04-21T02:03:18;5.70;99.90
30186;DHT22;31152;49.190;8.122;2023-04-21T02:05:49;5.70;99.90
30186;DHT22;31152;49.190;8.122;2023-04-21T02:08:16;5.70;99.90
30186;DHT22;31152;49.190;8.122;2023-04-21T02:10:43;5.70;99.90
30186;DHT22;31152;49.190;8.122;2023-04-21T02:13:14;5.60;99.90
30186;DHT22;31152;49.190;8.122;2023-04-21T02:15:41;5.70;99.90
30186;DHT22;31152;49.190;8.122;2023-04-21T02:18:10;5.70;99.90
30186;DHT22;31152;49.190;8.122;2023-04-21T02:20:42;5.70;99.90
30186;DHT22;31152;49.190;8.122;2023-04-21T02:23:09;5.70;99.90
30186;DHT22;31152;49.190;8.122;2023-04-21T02:25:36;5.70;99.90
30186;DHT22;31152;49.190;8.122;2023-04-21T02:28:03;5.70;99.90
30186;DHT22;31152;49.190;8.122;2023-04-21T02:30:32;5.60;99.90
30186;DHT22;31152;49.190;8.122;2023-04-21T02:33:02;5.60;99.90
30186;DHT22;31152;49.190;8.122;2023-04-21T02:35:29;5.60;99.90
30186;DHT22;31152;49.190;8.122;2023-04-21T02:37:56;5.60;99.90
30186;DHT22;31152;49.190;8.122;2023-04-21T02:40:23;5.60;99.90
30186;DHT22;31152;49.190;8.122;2023-04-21T02:42:50;5.50;99.90
30186;DHT22;31152;49.190;8.122;2023-04-21T02:45:16;5.50;99.90
30186;DHT22;31152;49.190;8.122;2023-04-21T02:47:43;5.50;99.90
30186;DHT22;31152;49.190;8.122;2023-04-21T02:50:14;5.50;99.90
30186;DHT22;31152;49.190;8.122;2023-04-21T02:52:41;5.50;99.90
30186;DHT22;31152;49.190;8.122;2023-04-21T02:55:08;5.50;99.90
30186;DHT22;31152;49.190;8.122;2023-04-21T02:57:35;5.50;99.90
30186;DHT22;31152;49.190;8.122;2023-04-21T03:00:02;5.50;99.90
30186;DHT22;31152;49.190;8.122;2023-04-21T03:02:30;5.50;99.90
30186;DHT22;31152;49.190;8.122;2023-04-21T03:04:57;5.50;99.90
30186;DHT22;31152;49.190;8.122;2023-04-21T03:07:26;5.40;99.90
30186;DHT22;31152;49.190;8.122;2023-04-21T03:09:52;5.40;99.90
30186;DHT22;31152;49.190;8.122;2023-04-21T03:12:19;5.40;99.90
30186;DHT22;31152;49.190;8.122;2023-04-21T03:14:46;5.40;99.90
30186;DHT22;31152;49.190;8.122;2023-04-21T03:17:15;5.40;99.90
30186;DHT22;31152;49.190;8.122;2023-04-21T03:19:44;5.30;99.90
30186;DHT22;31152;49.190;8.122;2023-04-21T03:22:11;5.30;99.90
30186;DHT22;31152;49.190;8.122;2023-04-21T03:24:40;5.30;99.90
30186;DHT22;31152;49.190;8.122;2023-04-21T03:27:06;5.30;99.90
30186;DHT22;31152;49.190;8.122;2023-04-21T03:29:36;5.30;99.90
30186;DHT22;31152;49.190;8.122;2023-04-21T03:32:05;5.20;99.90
30186;DHT22;31152;49.190;8.122;2023-04-21T03:34:32;5.20;99.90
30186;DHT22;31152;49.190;8.122;2023-04-21T03:36:58;5.20;99.90
30186;DHT22;31152;49.190;8.122;2023-04-21T03:39:25;5.20;99.90
30186;DHT22;31152;49.190;8.122;2023-04-21T03:41:52;5.10;99.90
30186;DHT22;31152;49.190;8.122;2023-04-21T03:44:23;5.10;99.90
30186;DHT22;31152;49.190;8.122;2023-04-21T03:46:51;5.10;99.90
30186;DHT22;31152;49.190;8.122;2023-04-21T03:49:19;5.10;99.90
30186;DHT22;31152;49.190;8.122;2023-04-21T03:51:47;5.10;99.90
30186;DHT22;31152;49.190;8.122;2023-04-21T03:54:13;5.10;99.90
30186;DHT22;31152;49.190;8.122;2023-04-21T03:56:40;5.10;99.90
30186;DHT22;31152;49.190;8.122;2023-04-21T03:59:07;5.10;99.90
30186;DHT22;31152;49.190;8.122;2023-04-21T04:01:34;5.10;99.90
30186;DHT22;31152;49.190;8.122;2023-04-21T04:04:00;5.10;99.90
30186;DHT22;31152;49.190;8.122;2023-04-21T04:06:28;5.10;99.90
30186;DHT22;31152;49.190;8.122;2023-04-21T04:08:54;5.00;99.90
30186;DHT22;31152;49.190;8.122;2023-04-21T04:11:21;5.10;99.90
30186;DHT22;31152;49.190;8.122;2023-04-21T04:13:50;5.10;99.90
30186;DHT22;31152;49.190;8.122;2023-04-21T04:16:17;5.10;99.90
30186;DHT22;31152;49.190;8.122;2023-04-21T04:18:46;5.10;99.90
30186;DHT22;31152;49.190;8.122;2023-04-21T04:21:15;5.00;99.90
30186;DHT22;31152;49.190;8.122;2023-04-21T04:23:42;5.00;99.90
30186;DHT22;31152;49.190;8.122;2023-04-21T04:26:09;5.00;99.90
30186;DHT22;31152;49.190;8.122;2023-04-21T04:28:39;5.00;99.90
30186;DHT22;31152;49.190;8.122;2023-04-21T04:31:06;5.00;99.90
30186;DHT22;31152;49.190;8.122;2023-04-21T04:33:33;4.90;99.90
30186;DHT22;31152;49.190;8.122;2023-04-21T04:36:00;4.90;99.90
30186;DHT22;31152;49.190;8.122;2023-04-21T04:38:29;4.90;99.90
30186;DHT22;31152;49.190;8.122;2023-04-21T04:40:56;4.80;99.90
30186;DHT22;31152;49.190;8.122;2023-04-21T04:43:27;4.90;99.90
30186;DHT22;31152;49.190;8.122;2023-04-21T04:45:54;4.90;99.90
30186;DHT22;31152;49.190;8.122;2023-04-21T04:48:24;4.80;99.90
30186;DHT22;31152;49.190;8.122;2023-04-21T04:50:53;4.80;99.90
30186;DHT22;31152;49.190;8.122;2023-04-21T04:53:20;4.80;99.90
30186;DHT22;31152;49.190;8.122;2023-04-21T04:55:46;4.80;99.90
30186;DHT22;31152;49.190;8.122;2023-04-21T04:58:13;4.90;99.90
30186;DHT22;31152;49.190;8.122;2023-04-21T05:00:40;4.80;99.90
30186;DHT22;31152;49.190;8.122;2023-04-21T05:03:07;4.80;99.90
30186;DHT22;31152;49.190;8.122;2023-04-21T05:05:34;4.80;99.90
30186;DHT22;31152;49.190;8.122;2023-04-21T05:08:01;4.80;99.90
30186;DHT22;31152;49.190;8.122;2023-04-21T05:10:30;4.80;99.90
30186;DHT22;31152;49.190;8.122;2023-04-21T05:12:57;4.80;99.90
30186;DHT22;31152;49.190;8.122;2023-04-21T05:15:23;4.70;99.90
30186;DHT22;31152;49.190;8.122;2023-04-21T05:17:50;4.70;99.90
30186;DHT22;31152;49.190;8.122;2023-04-21T05:20:17;4.70;99.90
30186;DHT22;31152;49.190;8.122;2023-04-21T05:22:43;4.70;99.90
30186;DHT22;31152;49.190;8.122;2023-04-21T05:25:11;4.70;99.90
30186;DHT22;31152;49.190;8.122;2023-04-21T05:27:41;4.60;99.90
30186;DHT22;31152;49.190;8.122;2023-04-21T05:30:08;4.60;99.90
30186;DHT22;31152;49.190;8.122;2023-04-21T05:32:36;4.60;99.90
30186;DHT22;31152;49.190;8.122;2023-04-21T05:35:06;4.60;99.90
30186;DHT22;31152;49.190;8.122;2023-04-21T05:37:33;4.50;99.90
30186;DHT22;31152;49.190;8.122;2023-04-21T05:39:59;4.50;99.90
30186;DHT22;31152;49.190;8.122;2023-04-21T05:42:26;4.50;99.90
30186;DHT22;31152;49.190;8.122;2023-04-21T05:44:53;4.50;99.90
30186;DHT22;31152;49.190;8.122;2023-04-21T05:47:20;4.40;99.90
30186;DHT22;31152;49.190;8.122;2023-04-21T05:49:50;4.40;99.90
30186;DHT22;31152;49.190;8.122;2023-04-21T05:52:19;4.40;99.90
30186;DHT22;31152;49.190;8.122;2023-04-21T05:54:47;4.40;99.90
30186;DHT22;31152;49.190;8.122;2023-04-21T05:57:16;4.40;99.90
30186;DHT22;31152;49.190;8.122;2023-04-21T05:59:43;4.30;99.90
30186;DHT22;31152;49.190;8.122;2023-04-21T06:02:10;4.30;99.90
30186;DHT22;31152;49.190;8.122;2023-04-21T06:04:37;4.30;99.90
30186;DHT22;31152;49.190;8.122;2023-04-21T06:07:06;4.30;99.90
30186;DHT22;31152;49.190;8.122;2023-04-21T06:09:38;4.30;99.90
30186;DHT22;31152;49.190;8.122;2023-04-21T06:12:06;4.30;99.90
30186;DHT22;31152;49.190;8.122;2023-04-21T06:14:34;4.30;99.90
30186;DHT22;31152;49.190;8.122;2023-04-21T06:17:03;4.20;99.90
30186;DHT22;31152;49.190;8.122;2023-04-21T06:19:36;4.20;99.90
30186;DHT22;31152;49.190;8.122;2023-04-21T06:22:03;4.20;99.90
30186;DHT22;31152;49.190;8.122;2023-04-21T06:24:33;4.20;99.90
30186;DHT22;31152;49.190;8.122;2023-04-21T06:27:00;4.20;99.90
30186;DHT22;31152;49.190;8.122;2023-04-21T06:29:27;4.30;99.90
30186;DHT22;31152;49.190;8.122;2023-04-21T06:31:53;4.40;99.90
30186;DHT22;31152;49.190;8.122;2023-04-21T06:34:20;4.50;99.90
30186;DHT22;31152;49.190;8.122;2023-04-21T06:36:47;4.60;99.90
30186;DHT22;31152;49.190;8.122;2023-04-21T06:39:14;4.80;99.90
30186;DHT22;31152;49.190;8.122;2023-04-21T06:41:41;4.90;99.90
30186;DHT22;31152;49.190;8.122;2023-04-21T06:44:07;5.10;99.90
30186;DHT22;31152;49.190;8.122;2023-04-21T06:46:39;5.30;99.90
30186;DHT22;31152;49.190;8.122;2023-04-21T06:49:10;5.40;99.90
30186;DHT22;31152;49.190;8.122;2023-04-21T06:51:37;5.70;99.90
30186;DHT22;31152;49.190;8.122;2023-04-21T06:54:11;5.90;99.90
30186;DHT22;31152;49.190;8.122;2023-04-21T06:56:38;6.10;99.90
30186;DHT22;31152;49.190;8.122;2023-04-21T06:59:04;6.30;99.90
30186;DHT22;31152;49.190;8.122;2023-04-21T07:01:31;6.40;99.90
30186;DHT22;31152;49.190;8.122;2023-04-21T07:04:01;6.60;99.90
30186;DHT22;31152;49.190;8.122;2023-04-21T07:06:28;6.60;99.90
30186;DHT22;31152;49.190;8.122;2023-04-21T07:08:55;6.80;99.90
30186;DHT22;31152;49.190;8.122;2023-04-21T07:11:21;6.90;99.90
30186;DHT22;31152;49.190;8.122;2023-04-21T07:13:48;7.00;99.90
30186;DHT22;31152;49.190;8.122;2023-04-21T07:16:17;7.10;99.90
30186;DHT22;31152;49.190;8.122;2023-04-21T07:18:44;7.30;99.90
30186;DHT22;31152;49.190;8.122;2023-04-21T07:21:11;7.40;99.90
30186;DHT22;31152;49.190;8.122;2023-04-21T07:23:38;7.50;99.90
30186;DHT22;31152;49.190;8.122;2023-04-21T07:26:05;7.60;99.90
30186;DHT22;31152;49.190;8.122;2023-04-21T07:28:31;7.80;99.90
30186;DHT22;31152;49.190;8.122;2023-04-21T07:30:58;7.90;99.90
30186;DHT22;31152;49.190;8.122;2023-04-21T07:33:28;8.00;99.90
30186;DHT22;31152;49.190;8.122;2023-04-21T07:35:55;8.20;99.90
30186;DHT22;31152;49.190;8.122;2023-04-21T07:38:24;8.40;99.90
30186;DHT22;31152;49.190;8.122;2023-04-21T07:40:51;8.50;99.90
30186;DHT22;31152;49.190;8.122;2023-04-21T07:43:17;8.60;99.90
30186;DHT22;31152;49.190;8.122;2023-04-21T07:45:45;8.90;99.90
30186;DHT22;31152;49.190;8.122;2023-04-21T07:48:12;8.90;99.90
30186;DHT22;31152;49.190;8.122;2023-04-21T07:50:39;9.10;99.90
30186;DHT22;31152;49.190;8.122;2023-04-21T07:53:06;9.30;99.90
30186;DHT22;31152;49.190;8.122;2023-04-21T07:55:33;9.40;99.90
30186;DHT22;31152;49.190;8.122;2023-04-21T07:58:07;9.60;99.90
30186;DHT22;31152;49.190;8.122;2023-04-21T08:00:38;9.80;99.90
30186;DHT22;31152;49.190;8.122;2023-04-21T08:03:07;10.00;99.90
30186;DHT22;31152;49.190;8.122;2023-04-21T08:05:34;10.20;99.90
30186;DHT22;31152;49.190;8.122;2023-04-21T08:08:06;10.40;99.90
30186;DHT22;31152;49.190;8.122;2023-04-21T08:10:35;10.70;99.90
30186;DHT22;31152;49.190;8.122;2023-04-21T08:13:14;10.90;99.90
30186;DHT22;31152;49.190;8.122;2023-04-21T08:15:41;11.10;99.90
30186;DHT22;31152;49.190;8.122;2023-04-21T08:18:08;11.40;99.90
30186;DHT22;31152;49.190;8.122;2023-04-21T08:20:35;11.60;99.90
30186;DHT22;31152;49.190;8.122;2023-04-21T08:23:01;11.60;99.90
30186;DHT22;31152;49.190;8.122;2023-04-21T08:25:29;11.70;99.90
30186;DHT22;31152;49.190;8.122;2023-04-21T08:27:59;11.90;99.90
30186;DHT22;31152;49.190;8.122;2023-04-21T08:30:28;12.10;99.90
30186;DHT22;31152;49.190;8.122;2023-04-21T08:32:55;12.30;99.90
30186;DHT22;31152;49.190;8.122;2023-04-21T08:35:21;12.50;99.90
30186;DHT22;31152;49.190;8.122;2023-04-21T08:37:48;12.70;99.90
30186;DHT22;31152;49.190;8.122;2023-04-21T08:40:18;12.80;99.90
30186;DHT22;31152;49.190;8.122;2023-04-21T08:42:45;12.90;99.90
30186;DHT22;31152;49.190;8.122;2023-04-21T08:45:12;13.10;99.90
30186;DHT22;31152;49.190;8.122;2023-04-21T08:47:40;13.20;99.90
30186;DHT22;31152;49.190;8.122;2023-04-21T08:50:12;13.30;99.90
30186;DHT22;31152;49.190;8.122;2023-04-21T08:52:39;13.40;99.90
30186;DHT22;31152;49.190;8.122;2023-04-21T08:55:06;13.40;99.90
30186;DHT22;31152;49.190;8.122;2023-04-21T08:57:33;13.50;99.90
30186;DHT22;31152;49.190;8.122;2023-04-21T09:00:00;13.60;99.90
30186;DHT22;31152;49.190;8.122;2023-04-21T09:02:33;13.70;99.90
30186;DHT22;31152;49.190;8.122;2023-04-21T09:05:31;13.80;99.90
30186;DHT22;31152;49.190;8.122;2023-04-21T09:08:09;13.80;99.90
30186;DHT22;31152;49.190;8.122;2023-04-21T09:10:50;14.00;99.90
30186;DHT22;31152;49.190;8.122;2023-04-21T09:13:28;13.90;99.90
30186;DHT22;31152;49.190;8.122;2023-04-21T09:15:55;14.00;99.90
30186;DHT22;31152;49.190;8.122;2023-04-21T09:18:26;14.10;99.90
30186;DHT22;31152;49.190;8.122;2023-04-21T09:21:12;14.20;99.90
30186;DHT22;31152;49.190;8.122;2023-04-21T09:23:51;14.20;99.90
30186;DHT22;31152;49.190;8.122;2023-04-21T09:26:20;14.10;99.90
30186;DHT22;31152;49.190;8.122;2023-04-21T09:28:50;13.70;99.90
30186;DHT22;31152;49.190;8.122;2023-04-21T09:31:18;13.60;99.90
30186;DHT22;31152;49.190;8.122;2023-04-21T09:33:51;13.80;99.90
30186;DHT22;31152;49.190;8.122;2023-04-21T09:36:22;14.00;99.90
30186;DHT22;31152;49.190;8.122;2023-04-21T09:38:55;14.30;99.90
30186;DHT22;31152;49.190;8.122;2023-04-21T09:41:47;14.60;99.90
30186;DHT22;31152;49.190;8.122;2023-04-21T09:44:13;14.70;99.90
30186;DHT22;31152;49.190;8.122;2023-04-21T09:46:47;14.90;99.90
30186;DHT22;31152;49.190;8.122;2023-04-21T09:49:16;14.90;99.90
30186;DHT22;31152;49.190;8.122;2023-04-21T09:51:44;15.00;99.90
30186;DHT22;31152;49.190;8.122;2023-04-21T09:54:19;15.20;99.90
30186;DHT22;31152;49.190;8.122;2023-04-21T09:56:57;15.40;99.90
30186;DHT22;31152;49.190;8.122;2023-04-21T09:59:25;15.70;99.90
30186;DHT22;31152;49.190;8.122;2023-04-21T10:01:59;15.80;99.90
30186;DHT22;31152;49.190;8.122;2023-04-21T10:04:29;16.00;99.90
30186;DHT22;31152;49.190;8.122;2023-04-21T10:06:59;15.90;99.90
30186;DHT22;31152;49.190;8.122;2023-04-21T10:09:34;15.80;99.90
30186;DHT22;31152;49.190;8.122;2023-04-21T10:12:05;16.00;99.90
30186;DHT22;31152;49.190;8.122;2023-04-21T10:14:35;16.20;99.90
30186;DHT22;31152;49.190;8.122;2023-04-21T10:17:04;16.40;99.90
30186;DHT22;31152;49.190;8.122;2023-04-21T10:19:34;16.60;99.90
30186;DHT22;31152;49.190;8.122;2023-04-21T10:22:06;16.80;99.90
30186;DHT22;31152;49.190;8.122;2023-04-21T10:24:39;17.00;99.90
30186;DHT22;31152;49.190;8.122;2023-04-21T10:27:09;17.20;99.90
30186;DHT22;31152;49.190;8.122;2023-04-21T10:29:37;17.40;99.90
30186;DHT22;31152;49.190;8.122;2023-04-21T10:32:41;17.40;99.90
30186;DHT22;31152;49.190;8.122;2023-04-21T10:35:13;17.60;99.90
30186;DHT22;31152;49.190;8.122;2023-04-21T10:37:41;17.70;99.90
30186;DHT22;31152;49.190;8.122;2023-04-21T10:43:43;18.00;99.90
30186;DHT22;31152;49.190;8.122;2023-04-21T10:46:38;18.00;99.90
30186;DHT22;31152;49.190;8.122;2023-04-21T10:49:19;18.20;99.90
30186;DHT22;31152;49.190;8.122;2023-04-21T10:52:02;18.30;99.90
30186;DHT22;31152;49.190;8.122;2023-04-21T10:57:21;18.50;99.90
30186;DHT22;31152;49.190;8.122;2023-04-21T10:59:48;18.80;99.90
30186;DHT22;31152;49.190;8.122;2023-04-21T11:02:16;18.90;99.90
30186;DHT22;31152;49.190;8.122;2023-04-21T11:04:44;18.90;99.90
30186;DHT22;31152;49.190;8.122;2023-04-21T11:07:24;19.00;99.90
30186;DHT22;31152;49.190;8.122;2023-04-21T11:09:59;19.20;99.40
30186;DHT22;31152;49.190;8.122;2023-04-21T11:12:28;19.30;99.70
30186;DHT22;31152;49.190;8.122;2023-04-21T11:14:56;19.40;99.90
30186;DHT22;31152;49.190;8.122;2023-04-21T11:17:23;19.60;98.50
30186;DHT22;31152;49.190;8.122;2023-04-21T11:19:54;19.70;98.40
30186;DHT22;31152;49.190;8.122;2023-04-21T11:22:24;19.80;98.60
30186;DHT22;31152;49.190;8.122;2023-04-21T11:24:55;20.00;98.30
30186;DHT22;31152;49.190;8.122;2023-04-21T11:27:22;20.00;97.30
30186;DHT22;31152;49.190;8.122;2023-04-21T11:29:51;20.00;97.40
30186;DHT22;31152;49.190;8.122;2023-04-21T11:32:23;20.10;97.60
30186;DHT22;31152;49.190;8.122;2023-04-21T11:34:50;20.30;96.60
30186;DHT22;31152;49.190;8.122;2023-04-21T11:37:25;20.40;96.90
30186;DHT22;31152;49.190;8.122;2023-04-21T11:39:56;20.60;96.60
30186;DHT22;31152;49.190;8.122;2023-04-21T11:42:24;20.60;96.40
30186;DHT22;31152;49.190;8.122;2023-04-21T11:44:54;20.70;96.20
30186;DHT22;31152;49.190;8.122;2023-04-21T11:47:23;20.80;95.80
30186;DHT22;31152;49.190;8.122;2023-04-21T11:49:55;21.00;95.60
30186;DHT22;31152;49.190;8.122;2023-04-21T11:52:27;21.10;95.00
30186;DHT22;31152;49.190;8.122;2023-04-21T11:54:58;21.20;94.10
30186;DHT22;31152;49.190;8.122;2023-04-21T11:57:27;21.30;94.20
30186;DHT22;31152;49.190;8.122;2023-04-21T11:59:57;21.40;93.80
30186;DHT22;31152;49.190;8.122;2023-04-21T12:02:29;21.50;93.70
30186;DHT22;31152;49.190;8.122;2023-04-21T12:05:06;21.30;93.80
30186;DHT22;31152;49.190;8.122;2023-04-21T12:07:41;21.40;93.10
30186;DHT22;31152;49.190;8.122;2023-04-21T12:12:40;21.50;92.80
30186;DHT22;31152;49.190;8.122;2023-04-21T12:15:09;21.50;91.80
30186;DHT22;31152;49.190;8.122;2023-04-21T12:17:47;21.50;92.60
30186;DHT22;31152;49.190;8.122;2023-04-21T12:20:18;21.60;92.40
30186;DHT22;31152;49.190;8.122;2023-04-21T12:22:48;21.70;91.80
30186;DHT22;31152;49.190;8.122;2023-04-21T12:25:15;21.80;91.50
30186;DHT22;31152;49.190;8.122;2023-04-21T12:30:15;22.20;91.10
30186;DHT22;31152;49.190;8.122;2023-04-21T12:32:42;22.30;90.70
30186;DHT22;31152;49.190;8.122;2023-04-21T12:35:12;22.40;90.50
30186;DHT22;31152;49.190;8.122;2023-04-21T12:37:39;22.60;90.20
30186;DHT22;31152;49.190;8.122;2023-04-21T12:40:06;22.80;89.40
30186;DHT22;31152;49.190;8.122;2023-04-21T12:42:33;22.90;88.50
30186;DHT22;31152;49.190;8.122;2023-04-21T12:45:04;22.90;88.30
30186;DHT22;31152;49.190;8.122;2023-04-21T12:47:31;22.90;88.30
30186;DHT22;31152;49.190;8.122;2023-04-21T12:50:00;23.00;88.50
30186;DHT22;31152;49.190;8.122;2023-04-21T12:52:29;23.20;86.20
30186;DHT22;31152;49.190;8.122;2023-04-21T12:54:56;23.30;85.90
30186;DHT22;31152;49.190;8.122;2023-04-21T12:57:23;23.40;86.80
30186;DHT22;31152;49.190;8.122;2023-04-21T12:59:49;23.50;86.00
30186;DHT22;31152;49.190;8.122;2023-04-21T13:02:16;23.70;85.00
30186;DHT22;31152;49.190;8.122;2023-04-21T13:04:43;23.80;84.90
30186;DHT22;31152;49.190;8.122;2023-04-21T13:07:10;23.90;85.30
30186;DHT22;31152;49.190;8.122;2023-04-21T13:09:37;24.10;83.10
30186;DHT22;31152;49.190;8.122;2023-04-21T13:12:06;24.20;79.80
30186;DHT22;31152;49.190;8.122;2023-04-21T13:14:33;24.30;79.90
30186;DHT22;31152;49.190;8.122;2023-04-21T13:17:00;24.40;78.20
30186;DHT22;31152;49.190;8.122;2023-04-21T13:19:29;24.20;78.60
30186;DHT22;31152;49.190;8.122;2023-04-21T13:21:56;24.20;78.00
30186;DHT22;31152;49.190;8.122;2023-04-21T13:24:23;24.10;78.70
30186;DHT22;31152;49.190;8.122;2023-04-21T13:26:52;23.80;79.00
30186;DHT22;31152;49.190;8.122;2023-04-21T13:29:19;23.60;79.80
30186;DHT22;31152;49.190;8.122;2023-04-21T13:31:48;23.50;79.10
30186;DHT22;31152;49.190;8.122;2023-04-21T13:34:15;23.50;80.90
30186;DHT22;31152;49.190;8.122;2023-04-21T13:36:42;23.40;78.90
30186;DHT22;31152;49.190;8.122;2023-04-21T13:39:11;23.30;78.30
30186;DHT22;31152;49.190;8.122;2023-04-21T13:41:38;23.20;79.80
30186;DHT22;31152;49.190;8.122;2023-04-21T13:44:07;23.10;79.70
30186;DHT22;31152;49.190;8.122;2023-04-21T13:46:34;23.10;80.40
30186;DHT22;31152;49.190;8.122;2023-04-21T13:49:01;23.10;78.90
30186;DHT22;31152;49.190;8.122;2023-04-21T13:51:27;23.00;79.90
30186;DHT22;31152;49.190;8.122;2023-04-21T13:53:55;23.00;80.00
30186;DHT22;31152;49.190;8.122;2023-04-21T13:56:22;23.00;80.40
30186;DHT22;31152;49.190;8.122;2023-04-21T13:58:51;23.00;80.50
30186;DHT22;31152;49.190;8.122;2023-04-21T14:01:20;23.10;80.30
30186;DHT22;31152;49.190;8.122;2023-04-21T14:03:49;23.20;80.00
30186;DHT22;31152;49.190;8.122;2023-04-21T14:06:17;23.30;80.30
30186;DHT22;31152;49.190;8.122;2023-04-21T14:08:43;23.30;79.80
30186;DHT22;31152;49.190;8.122;2023-04-21T14:11:10;23.30;80.00
30186;DHT22;31152;49.190;8.122;2023-04-21T14:13:37;23.30;80.20
30186;DHT22;31152;49.190;8.122;2023-04-21T14:16:26;23.40;81.80
30186;DHT22;31152;49.190;8.122;2023-04-21T14:18:53;23.50;78.90
30186;DHT22;31152;49.190;8.122;2023-04-21T14:21:22;23.60;80.10
30186;DHT22;31152;49.190;8.122;2023-04-21T14:23:49;23.60;78.40
30186;DHT22;31152;49.190;8.122;2023-04-21T14:26:18;23.80;78.60
30186;DHT22;31152;49.190;8.122;2023-04-21T14:28:45;23.90;76.50
30186;DHT22;31152;49.190;8.122;2023-04-21T14:31:12;23.90;77.80
30186;DHT22;31152;49.190;8.122;2023-04-21T14:33:39;24.00;78.20
30186;DHT22;31152;49.190;8.122;2023-04-21T14:36:06;24.00;76.40
30186;DHT22;31152;49.190;8.122;2023-04-21T14:38:38;24.10;77.10
30186;DHT22;31152;49.190;8.122;2023-04-21T14:41:07;24.20;76.70
30186;DHT22;31152;49.190;8.122;2023-04-21T14:43:37;24.30;75.60
30186;DHT22;31152;49.190;8.122;2023-04-21T14:46:03;24.30;75.10
30186;DHT22;31152;49.190;8.122;2023-04-21T14:48:31;24.30;75.80
30186;DHT22;31152;49.190;8.122;2023-04-21T14:50:58;24.30;75.00
30186;DHT22;31152;49.190;8.122;2023-04-21T14:53:24;24.30;75.90
30186;DHT22;31152;49.190;8.122;2023-04-21T14:55:51;24.20;75.40
30186;DHT22;31152;49.190;8.122;2023-04-21T14:58:20;24.00;75.80
30186;DHT22;31152;49.190;8.122;2023-04-21T15:00:47;23.80;76.00
30186;DHT22;31152;49.190;8.122;2023-04-21T15:03:14;23.60;75.90
30186;DHT22;31152;49.190;8.122;2023-04-21T15:05:42;23.40;76.60
30186;DHT22;31152;49.190;8.122;2023-04-21T15:08:09;23.10;76.90
30186;DHT22;31152;49.190;8.122;2023-04-21T15:10:37;22.90;78.20
30186;DHT22;31152;49.190;8.122;2023-04-21T15:13:08;22.70;78.60
30186;DHT22;31152;49.190;8.122;2023-04-21T15:15:38;22.50;78.70
30186;DHT22;31152;49.190;8.122;2023-04-21T15:18:05;22.30;78.90
30186;DHT22;31152;49.190;8.122;2023-04-21T15:20:35;22.20;80.20
30186;DHT22;31152;49.190;8.122;2023-04-21T15:23:11;22.20;80.40
30186;DHT22;31152;49.190;8.122;2023-04-21T15:25:38;22.20;80.60
30186;DHT22;31152;49.190;8.122;2023-04-21T15:28:08;22.20;79.90
30186;DHT22;31152;49.190;8.122;2023-04-21T15:30:35;22.20;80.70
30186;DHT22;31152;49.190;8.122;2023-04-21T15:33:03;22.20;80.50
30186;DHT22;31152;49.190;8.122;2023-04-21T15:35:30;22.10;81.30
30186;DHT22;31152;49.190;8.122;2023-04-21T15:37:57;22.10;83.70
30186;DHT22;31152;49.190;8.122;2023-04-21T15:40:24;22.00;83.40
30186;DHT22;31152;49.190;8.122;2023-04-21T15:42:51;21.80;84.00
30186;DHT22;31152;49.190;8.122;2023-04-21T15:45:17;21.50;83.20
30186;DHT22;31152;49.190;8.122;2023-04-21T15:47:44;20.10;81.80
30186;DHT22;31152;49.190;8.122;2023-04-21T15:50:11;17.70;95.30
30186;DHT22;31152;49.190;8.122;2023-04-21T15:52:38;15.60;99.90
30186;DHT22;31152;49.190;8.122;2023-04-21T15:55:12;14.30;99.90
30186;DHT22;31152;49.190;8.122;2023-04-21T15:57:39;13.50;99.90